createdAt,value
2023-03-28T00:00:13.273Z,99441.06
2023-03-28T00:01:15.347Z,99440.25
2023-03-28T00:02:17.237Z,99437.56
2023-03-28T00:03:22.354Z,99444.84
2023-03-28T00:04:24.304Z,99444.03
2023-03-28T00:05:26.305Z,99444.59
2023-03-28T00:06:28.904Z,99450.22
2023-03-28T00:07:31.497Z,99439.44
2023-03-28T00:08:33.551Z,99445.09
2023-03-28T00:09:35.465Z,99447.78
2023-03-28T00:10:38.042Z,99450.75
2023-03-28T00:11:39.885Z,99446.16
2023-03-28T00:12:41.776Z,99452.38
2023-03-28T00:13:43.750Z,99456.69
2023-03-28T00:14:46.205Z,99455.06
2023-03-28T00:15:48.322Z,99458.81
2023-03-28T00:16:50.414Z,99455.06
2023-03-28T00:17:52.550Z,99456.13
2023-03-28T00:18:54.482Z,99457.19
2023-03-28T00:19:57.092Z,99466.09
2023-03-28T00:20:58.917Z,99461.78
2023-03-28T00:22:00.756Z,99460.97
2023-03-28T00:23:05.921Z,99463.66
2023-03-28T00:24:13.765Z,99460.72
2023-03-28T00:25:15.868Z,99465.53
2023-03-28T00:26:18.911Z,99457.47
2023-03-28T00:27:20.687Z,99456.66
2023-03-28T00:28:22.536Z,99466.63
2023-03-28T00:29:26.074Z,99457.47
2023-03-28T00:30:28.000Z,99460.16
2023-03-28T00:31:32.249Z,99471.75
2023-03-28T00:32:34.713Z,99465.00
2023-03-28T00:33:36.466Z,99471.19
2023-03-28T00:34:38.277Z,99469.56
2023-03-28T00:35:40.235Z,99470.38
2023-03-28T00:36:42.718Z,99477.66
2023-03-28T00:37:45.896Z,99470.63
2023-03-28T00:38:47.900Z,99475.75
2023-03-28T00:39:53.784Z,99473.34
2023-03-28T00:40:57.914Z,99477.06
2023-03-28T00:42:01.684Z,99476.56
2023-03-28T00:43:03.829Z,99480.56
2023-03-28T00:44:53.778Z,99477.47
2023-03-28T00:46:08.306Z,99482.78
2023-03-28T00:47:38.247Z,99484.69
2023-03-28T00:48:53.840Z,99484.38
2023-03-28T00:50:07.254Z,99482.78
2023-03-28T00:51:09.353Z,99485.41
2023-03-28T00:52:14.036Z,99479.72
2023-03-28T00:53:26.704Z,99478.47
2023-03-28T00:54:38.626Z,99482.22
2023-03-28T00:55:58.830Z,99481.16
2023-03-28T00:57:03.171Z,99482.97
2023-03-28T00:58:12.186Z,99483.78
2023-03-28T00:59:21.388Z,99480.03
2023-03-28T01:00:24.649Z,99479.47
2023-03-28T01:01:27.498Z,99480.81
2023-03-28T01:02:30.434Z,99478.09
2023-03-28T01:03:35.916Z,99485.13
2023-03-28T01:04:54.130Z,99485.41
2023-03-28T01:05:57.907Z,99487.81
2023-03-28T01:07:00.381Z,99481.88
2023-03-28T01:08:34.209Z,99482.78
2023-03-28T01:09:36.381Z,99486.75
2023-03-28T01:10:38.682Z,99489.13
2023-03-28T01:11:43.360Z,99482.13
2023-03-28T01:12:46.392Z,99489.41
2023-03-28T01:13:52.128Z,99489.13
2023-03-28T01:14:54.672Z,99493.13
2023-03-28T01:15:59.161Z,99485.91
2023-03-28T01:17:01.237Z,99484.00
2023-03-28T01:18:04.030Z,99487.75
2023-03-28T01:19:10.559Z,99489.63
2023-03-28T01:20:51.526Z,99487.34
2023-03-28T01:22:27.051Z,99484.34
2023-03-28T01:24:11.997Z,99483.25
2023-03-28T01:26:27.479Z,99498.13
2023-03-28T01:27:45.642Z,99496.97
2023-03-28T01:28:58.937Z,99493.97
2023-03-28T01:30:21.650Z,99491.28
2023-03-28T01:31:31.806Z,99501.22
2023-03-28T01:33:06.599Z,99498.78
2023-03-28T01:34:23.140Z,99501.22
2023-03-28T01:35:42.507Z,99502.53
2023-03-28T01:37:03.245Z,99488.00
2023-03-28T01:38:39.663Z,99503.97
2023-03-28T01:40:24.490Z,99505.03
2023-03-28T01:41:48.614Z,99504.75
2023-03-28T01:43:09.782Z,99506.84
2023-03-28T01:44:22.190Z,99511.09
2023-03-28T01:46:00.431Z,99512.81
2023-03-28T01:47:09.375Z,99497.94
2023-03-28T01:49:07.112Z,99501.28
2023-03-28T01:50:28.946Z,99506.75
2023-03-28T01:51:45.906Z,99504.69
2023-03-28T01:52:52.390Z,99504.88
2023-03-28T01:54:33.181Z,99507.66
2023-03-28T01:56:22.428Z,99519.00
2023-03-28T01:57:27.481Z,99511.28
2023-03-28T01:58:40.187Z,99512.38
2023-03-28T02:00:12.675Z,99512.19
2023-03-28T02:01:36.896Z,99513.78
2023-03-28T02:02:49.263Z,99518.00
2023-03-28T02:03:59.030Z,99518.81
2023-03-28T02:05:07.852Z,99516.38
2023-03-28T02:06:11.733Z,99510.44
2023-03-28T02:07:15.613Z,99519.59
2023-03-28T02:08:20.774Z,99506.13
2023-03-28T02:09:27.133Z,99512.31
2023-03-28T02:10:32.867Z,99511.00
2023-03-28T02:11:36.260Z,99520.16
2023-03-28T02:12:47.876Z,99515.56
2023-03-28T02:13:57.772Z,99517.44
2023-03-28T02:15:06.471Z,99514.75
2023-03-28T02:16:12.676Z,99509.13
2023-03-28T02:17:16.585Z,99516.66
2023-03-28T02:18:29.658Z,99513.69
2023-03-28T02:19:37.926Z,99509.94
2023-03-28T02:20:44.062Z,99508.06
2023-03-28T02:22:24.348Z,99511.44
2023-03-28T02:23:50.409Z,99516.53
2023-03-28T02:24:52.591Z,99515.31
2023-03-28T02:25:54.607Z,99503.19
2023-03-28T02:26:56.958Z,99519.34
2023-03-28T02:28:05.459Z,99521.78
2023-03-28T02:29:09.042Z,99512.88
2023-03-28T02:30:12.507Z,99520.16
2023-03-28T02:31:16.191Z,99515.28
2023-03-28T02:32:21.791Z,99518.53
2023-03-28T02:33:42.208Z,99515.88
2023-03-28T02:34:48.846Z,99516.91
2023-03-28T02:36:08.552Z,99520.69
2023-03-28T02:37:41.550Z,99516.78
2023-03-28T02:39:00.420Z,99510.25
2023-03-28T02:40:33.404Z,99519.47
2023-03-28T02:42:29.183Z,99516.00
2023-03-28T02:43:52.317Z,99517.03
2023-03-28T02:45:15.979Z,99520.78
2023-03-28T02:46:30.309Z,99511.81
2023-03-28T02:48:05.890Z,99512.06
2023-03-28T02:49:49.595Z,99516.38
2023-03-28T02:51:14.318Z,99509.63
2023-03-28T02:52:37.056Z,99509.91
2023-03-28T02:54:12.614Z,99509.13
2023-03-28T02:56:00.120Z,99520.69
2023-03-28T02:57:05.275Z,99518.44
2023-03-28T02:58:37.991Z,99513.94
2023-03-28T02:59:53.815Z,99522.22
2023-03-28T03:00:56.608Z,99521.38
2023-03-28T03:01:59.235Z,99523.00
2023-03-28T03:03:01.599Z,99521.38
2023-03-28T03:04:04.171Z,99518.13
2023-03-28T03:05:07.712Z,99518.34
2023-03-28T03:06:10.450Z,99512.97
2023-03-28T03:07:13.799Z,99523.50
2023-03-28T03:08:16.152Z,99517.84
2023-03-28T03:09:18.608Z,99516.25
2023-03-28T03:10:22.013Z,99518.13
2023-03-28T03:11:28.033Z,99509.22
2023-03-28T03:12:29.897Z,99516.78
2023-03-28T03:13:31.720Z,99507.09
2023-03-28T03:14:34.626Z,99507.91
2023-03-28T03:15:38.921Z,99509.78
2023-03-28T03:16:43.152Z,99511.66
2023-03-28T03:17:45.464Z,99513.03
2023-03-28T03:18:47.311Z,99504.41
2023-03-28T03:19:49.090Z,99504.16
2023-03-28T03:20:50.911Z,99513.03
2023-03-28T03:21:54.132Z,99508.72
2023-03-28T03:22:56.602Z,99515.72
2023-03-28T03:23:58.384Z,99510.59
2023-03-28T03:25:06.486Z,99515.72
2023-03-28T03:26:08.423Z,99509.28
2023-03-28T03:27:10.356Z,99517.34
2023-03-28T03:28:13.118Z,99512.22
2023-03-28T03:29:15.324Z,99515.72
2023-03-28T03:30:17.310Z,99520.84
2023-03-28T03:31:19.693Z,99523.81
2023-03-28T03:32:21.595Z,99511.16
2023-03-28T03:33:23.605Z,99522.72
2023-03-28T03:34:26.257Z,99515.72
2023-03-28T03:35:33.517Z,99519.78
2023-03-28T03:36:35.473Z,99517.09
2023-03-28T03:37:37.629Z,99518.16
2023-03-28T03:38:39.872Z,99522.72
2023-03-28T03:39:41.929Z,99515.72
2023-03-28T03:40:43.803Z,99516.78
2023-03-28T03:41:45.707Z,99520.28
2023-03-28T03:42:47.492Z,99520.84
2023-03-28T03:43:49.412Z,99523.53
2023-03-28T03:44:51.320Z,99522.19
2023-03-28T03:45:53.586Z,99522.19
2023-03-28T03:46:55.428Z,99514.09
2023-03-28T03:47:57.308Z,99516.78
2023-03-28T03:48:59.198Z,99520.28
2023-03-28T03:50:01.094Z,99515.97
2023-03-28T03:51:02.955Z,99529.69
2023-03-28T03:52:05.270Z,99513.53
2023-03-28T03:53:07.183Z,99517.06
2023-03-28T03:54:08.979Z,99517.31
2023-03-28T03:55:11.514Z,99515.97
2023-03-28T03:56:13.385Z,99520.56
2023-03-28T03:57:15.688Z,99518.34
2023-03-28T03:58:18.754Z,99514.84
2023-03-28T03:59:22.598Z,99514.63
2023-03-28T04:00:24.420Z,99520.00
2023-03-28T04:01:30.119Z,99521.63
2023-03-28T04:02:32.279Z,99515.66
2023-03-28T04:03:34.345Z,99517.53
2023-03-28T04:04:37.000Z,99522.69
2023-03-28T04:05:38.837Z,99514.84
2023-03-28T04:06:40.767Z,99514.03
2023-03-28T04:07:42.962Z,99515.91
2023-03-28T04:08:44.803Z,99513.78
2023-03-28T04:09:46.656Z,99509.47
2023-03-28T04:10:48.479Z,99515.66
2023-03-28T04:11:50.294Z,99518.59
2023-03-28T04:12:52.257Z,99521.56
2023-03-28T04:13:54.020Z,99524.78
2023-03-28T04:14:56.205Z,99522.09
2023-03-28T04:15:58.420Z,99521.28
2023-03-28T04:17:01.793Z,99520.47
2023-03-28T04:18:06.899Z,99523.19
2023-03-28T04:19:13.789Z,99523.72
2023-03-28T04:20:15.984Z,99519.41
2023-03-28T04:21:25.800Z,99528.06
2023-03-28T04:22:30.972Z,99528.06
2023-03-28T04:23:33.963Z,99521.03
2023-03-28T04:24:37.535Z,99524.31
2023-03-28T04:25:41.533Z,99525.94
2023-03-28T04:26:45.866Z,99527.00
2023-03-28T04:27:48.073Z,99528.88
2023-03-28T04:28:49.927Z,99528.28
2023-03-28T04:29:56.139Z,99531.56
2023-03-28T04:31:00.612Z,99526.19
2023-03-28T04:32:05.575Z,99536.69
2023-03-28T04:33:08.400Z,99532.94
2023-03-28T04:34:10.422Z,99537.50
2023-03-28T04:35:12.411Z,99541.56
2023-03-28T04:36:16.901Z,99537.50
2023-03-28T04:37:19.915Z,99546.13
2023-03-28T04:38:23.642Z,99541.56
2023-03-28T04:39:27.129Z,99543.19
2023-03-28T04:40:29.379Z,99540.50
2023-03-28T04:41:33.168Z,99551.25
2023-03-28T04:42:35.685Z,99553.69
2023-03-28T04:43:38.647Z,99555.31
2023-03-28T04:44:40.805Z,99554.50
2023-03-28T04:45:42.616Z,99557.19
2023-03-28T04:46:44.442Z,99551.81
2023-03-28T04:47:46.557Z,99556.13
2023-03-28T04:48:48.565Z,99556.13
2023-03-28T04:49:58.428Z,99560.78
2023-03-28T04:51:00.571Z,99558.34
2023-03-28T04:52:02.451Z,99560.78
2023-03-28T04:53:04.437Z,99563.72
2023-03-28T04:54:06.321Z,99561.59
2023-03-28T04:55:10.235Z,99562.16
2023-03-28T04:56:13.994Z,99561.84
2023-03-28T04:57:16.058Z,99561.59
2023-03-28T04:58:21.070Z,99553.78
2023-03-28T04:59:23.032Z,99570.22
2023-03-28T05:00:26.154Z,99566.72
2023-03-28T05:01:28.035Z,99572.09
2023-03-28T05:02:29.942Z,99571.28
2023-03-28T05:03:31.973Z,99566.97
2023-03-28T05:04:33.907Z,99567.78
2023-03-28T05:05:35.786Z,99569.41
2023-03-28T05:06:38.908Z,99571.03
2023-03-28T05:07:40.727Z,99571.03
2023-03-28T05:08:43.723Z,99570.47
2023-03-28T05:09:45.660Z,99572.91
2023-03-28T05:10:47.971Z,99567.28
2023-03-28T05:11:50.702Z,99574.78
2023-03-28T05:12:52.586Z,99572.91
2023-03-28T05:13:54.411Z,99577.22
2023-03-28T05:14:56.214Z,99575.03
2023-03-28T05:15:58.067Z,99584.75
2023-03-28T05:16:59.909Z,99585.56
2023-03-28T05:18:02.018Z,99581.25
2023-03-28T05:19:03.952Z,99579.38
2023-03-28T05:20:09.633Z,99580.69
2023-03-28T05:21:11.679Z,99583.13
2023-03-28T05:22:13.486Z,99581.50
2023-03-28T05:23:15.300Z,99584.19
2023-03-28T05:24:17.188Z,99580.44
2023-03-28T05:25:19.878Z,99585.81
2023-03-28T05:26:21.706Z,99589.56
2023-03-28T05:27:23.579Z,99584.19
2023-03-28T05:28:25.668Z,99581.50
2023-03-28T05:29:27.516Z,99587.69
2023-03-28T05:30:29.453Z,99586.88
2023-03-28T05:31:31.314Z,99588.75
2023-03-28T05:32:33.521Z,99591.72
2023-03-28T05:33:35.623Z,99597.66
2023-03-28T05:34:37.479Z,99603.03
2023-03-28T05:35:40.447Z,99605.16
2023-03-28T05:36:42.810Z,99611.34
2023-03-28T05:37:46.755Z,99607.84
2023-03-28T05:38:49.259Z,99605.97
2023-03-28T05:39:51.406Z,99612.66
2023-03-28T05:40:53.949Z,99618.84
2023-03-28T05:41:55.856Z,99614.28
2023-03-28T05:42:57.897Z,99623.41
2023-03-28T05:43:59.768Z,99612.66
2023-03-28T05:45:02.682Z,99611.03
2023-03-28T05:46:04.866Z,99615.59
2023-03-28T05:47:06.735Z,99611.03
2023-03-28T05:48:08.839Z,99619.09
2023-03-28T05:49:11.862Z,99615.34
2023-03-28T05:50:13.767Z,99616.16
2023-03-28T05:51:16.872Z,99615.59
2023-03-28T05:52:18.789Z,99625.56
2023-03-28T05:53:20.713Z,99623.94
2023-03-28T05:54:22.565Z,99622.88
2023-03-28T05:55:24.529Z,99622.31
2023-03-28T05:56:26.365Z,99619.63
2023-03-28T05:57:28.304Z,99624.19
2023-03-28T05:58:30.167Z,99622.31
2023-03-28T05:59:32.534Z,99622.31
2023-03-28T06:00:34.581Z,99628.25
2023-03-28T06:01:37.043Z,99625.81
2023-03-28T06:02:40.275Z,99627.94
2023-03-28T06:03:42.589Z,99630.38
2023-03-28T06:04:45.444Z,99628.75
2023-03-28T06:05:47.936Z,99625.25
2023-03-28T06:06:50.872Z,99638.44
2023-03-28T06:07:52.814Z,99629.56
2023-03-28T06:08:54.577Z,99630.63
2023-03-28T06:09:57.797Z,99624.44
2023-03-28T06:11:03.311Z,99626.06
2023-03-28T06:12:06.408Z,99632.25
2023-03-28T06:13:08.269Z,99632.00
2023-03-28T06:14:11.249Z,99632.25
2023-03-28T06:15:13.363Z,99633.31
2023-03-28T06:16:15.398Z,99635.75
2023-03-28T06:17:17.247Z,99639.25
2023-03-28T06:18:19.109Z,99636.56
2023-03-28T06:19:21.371Z,99638.44
2023-03-28T06:20:23.362Z,99637.38
2023-03-28T06:21:25.196Z,99645.47
2023-03-28T06:22:27.122Z,99644.66
2023-03-28T06:23:28.980Z,99642.75
2023-03-28T06:24:31.409Z,99641.69
2023-03-28T06:25:33.183Z,99649.78
2023-03-28T06:26:35.045Z,99642.75
2023-03-28T06:27:36.939Z,99642.50
2023-03-28T06:28:38.873Z,99648.16
2023-03-28T06:29:40.882Z,99647.09
2023-03-28T06:30:42.781Z,99647.91
2023-03-28T06:31:44.711Z,99649.78
2023-03-28T06:32:47.324Z,99648.72
2023-03-28T06:33:49.240Z,99650.34
2023-03-28T06:34:51.120Z,99647.91
2023-03-28T06:35:53.010Z,99655.72
2023-03-28T06:36:54.950Z,99653.03
2023-03-28T06:37:56.791Z,99654.34
2023-03-28T06:38:58.640Z,99651.41
2023-03-28T06:40:00.791Z,99653.03
2023-03-28T06:41:03.047Z,99654.09
2023-03-28T06:42:04.927Z,99647.63
2023-03-28T06:43:06.790Z,99650.34
2023-03-28T06:44:08.704Z,99648.44
2023-03-28T06:45:11.006Z,99653.03
2023-03-28T06:46:13.760Z,99653.03
2023-03-28T06:47:15.631Z,99652.81
2023-03-28T06:48:17.891Z,99651.16
2023-03-28T06:49:19.831Z,99653.03
2023-03-28T06:50:21.767Z,99650.09
2023-03-28T06:51:24.143Z,99651.97
2023-03-28T06:52:26.053Z,99655.50
2023-03-28T06:53:28.404Z,99647.16
2023-03-28T06:54:30.262Z,99653.63
2023-03-28T06:55:32.107Z,99654.66
2023-03-28T06:56:34.166Z,99655.50
2023-03-28T06:57:36.229Z,99666.25
2023-03-28T06:58:39.283Z,99657.94
2023-03-28T06:59:41.072Z,99663.31
2023-03-28T07:00:43.103Z,99663.56
2023-03-28T07:01:44.986Z,99667.06
2023-03-28T07:02:46.978Z,99668.09
2023-03-28T07:03:51.427Z,99664.59
2023-03-28T07:04:55.525Z,99672.19
2023-03-28T07:05:57.631Z,99673.50
2023-03-28T07:06:59.492Z,99674.56
2023-03-28T07:08:01.881Z,99674.34
2023-03-28T07:09:06.163Z,99673.50
2023-03-28T07:10:09.396Z,99676.44
2023-03-28T07:11:11.278Z,99676.44
2023-03-28T07:12:13.144Z,99672.94
2023-03-28T07:13:15.861Z,99671.31
2023-03-28T07:14:17.630Z,99673.50
2023-03-28T07:15:19.731Z,99683.44
2023-03-28T07:16:21.623Z,99678.88
2023-03-28T07:17:23.420Z,99666.47
2023-03-28T07:18:25.373Z,99674.56
2023-03-28T07:19:27.301Z,99681.56
2023-03-28T07:20:29.264Z,99678.88
2023-03-28T07:21:31.139Z,99683.44
2023-03-28T07:22:33.061Z,99682.41
2023-03-28T07:23:35.707Z,99681.56
2023-03-28T07:24:37.553Z,99677.84
2023-03-28T07:25:39.323Z,99679.47
2023-03-28T07:26:43.300Z,99674.34
2023-03-28T07:27:45.457Z,99683.22
2023-03-28T07:28:47.296Z,99678.41
2023-03-28T07:29:49.129Z,99687.78
2023-03-28T07:30:54.519Z,99675.97
2023-03-28T07:31:56.383Z,99685.09
2023-03-28T07:33:10.216Z,99686.47
2023-03-28T07:34:18.726Z,99690.53
2023-03-28T07:35:20.741Z,99688.34
2023-03-28T07:36:22.629Z,99683.53
2023-03-28T07:37:24.624Z,99698.31
2023-03-28T07:38:26.610Z,99692.91
2023-03-28T07:39:28.666Z,99692.66
2023-03-28T07:40:33.120Z,99686.22
2023-03-28T07:41:34.970Z,99690.78
2023-03-28T07:42:36.845Z,99690.78
2023-03-28T07:43:40.108Z,99687.03
2023-03-28T07:44:42.613Z,99690.78
2023-03-28T07:45:46.213Z,99680.84
2023-03-28T07:46:48.143Z,99686.47
2023-03-28T07:47:49.972Z,99691.59
2023-03-28T07:48:51.897Z,99691.59
2023-03-28T07:49:54.382Z,99696.97
2023-03-28T07:50:56.604Z,99699.94
2023-03-28T07:51:59.364Z,99701.31
2023-03-28T07:53:01.259Z,99700.50
2023-03-28T07:54:04.973Z,99695.09
2023-03-28T07:55:07.351Z,99698.59
2023-03-28T07:56:10.702Z,99694.84
2023-03-28T07:57:12.814Z,99700.22
2023-03-28T07:58:14.729Z,99700.22
2023-03-28T07:59:16.768Z,99697.28
2023-03-28T08:00:22.626Z,99703.47
2023-03-28T08:01:25.015Z,99700.22
2023-03-28T08:02:26.954Z,99697.28
2023-03-28T08:03:28.874Z,99702.66
2023-03-28T08:04:31.074Z,99704.06
2023-03-28T08:05:34.157Z,99704.28
2023-03-28T08:06:38.264Z,99698.91
2023-03-28T08:07:42.019Z,99700.78
2023-03-28T08:08:43.858Z,99705.72
2023-03-28T08:09:45.839Z,99708.41
2023-03-28T08:10:51.533Z,99707.00
2023-03-28T08:11:53.564Z,99711.34
2023-03-28T08:12:55.509Z,99707.59
2023-03-28T08:13:57.290Z,99707.59
2023-03-28T08:14:59.151Z,99707.59
2023-03-28T08:16:01.157Z,99710.59
2023-03-28T08:17:03.255Z,99710.59
2023-03-28T08:18:05.393Z,99715.19
2023-03-28T08:19:11.863Z,99711.41
2023-03-28T08:20:14.575Z,99720.31
2023-03-28T08:21:16.440Z,99713.84
2023-03-28T08:22:18.404Z,99721.13
2023-03-28T08:23:20.704Z,99715.72
2023-03-28T08:24:32.972Z,99724.38
2023-03-28T08:25:37.423Z,99723.31
2023-03-28T08:26:39.267Z,99725.19
2023-03-28T08:27:41.084Z,99721.44
2023-03-28T08:28:42.918Z,99722.50
2023-03-28T08:29:44.730Z,99718.16
2023-03-28T08:30:46.513Z,99721.44
2023-03-28T08:31:49.317Z,99723.06
2023-03-28T08:32:51.677Z,99721.16
2023-03-28T08:33:55.704Z,99727.63
2023-03-28T08:34:57.832Z,99718.47
2023-03-28T08:35:59.826Z,99723.06
2023-03-28T08:37:01.957Z,99721.16
2023-03-28T08:38:03.947Z,99714.75
2023-03-28T08:39:05.844Z,99716.38
2023-03-28T08:40:13.993Z,99719.63
2023-03-28T08:42:18.612Z,99720.06
2023-03-28T08:43:47.795Z,99715.69
2023-03-28T08:45:16.169Z,99721.69
2023-03-28T08:46:22.830Z,99721.88
2023-03-28T08:48:00.726Z,99721.41
2023-03-28T08:49:12.019Z,99720.56
2023-03-28T08:50:16.241Z,99717.78
2023-03-28T08:51:32.165Z,99725.13
2023-03-28T08:52:35.501Z,99722.38
2023-03-28T08:53:47.689Z,99716.50
2023-03-28T08:54:58.830Z,99718.13
2023-03-28T08:56:04.590Z,99722.69
2023-03-28T08:57:16.704Z,99719.19
2023-03-28T08:58:23.244Z,99727.28
2023-03-28T08:59:55.619Z,99722.00
2023-03-28T09:00:57.713Z,99710.03
2023-03-28T09:01:59.611Z,99719.41
2023-03-28T09:03:01.616Z,99714.84
2023-03-28T09:04:04.736Z,99723.19
2023-03-28T09:06:40.924Z,99721.38
2023-03-28T09:08:13.262Z,99726.88
2023-03-28T09:09:21.129Z,99733.00
2023-03-28T09:10:34.785Z,99725.69
2023-03-28T09:12:02.830Z,99724.44
2023-03-28T09:13:51.031Z,99715.59
2023-03-28T09:15:16.298Z,99724.19
2023-03-28T09:16:38.707Z,99725.19
2023-03-28T09:18:23.864Z,99722.81
2023-03-28T09:20:35.743Z,99721.28
2023-03-28T09:22:16.033Z,99719.88
2023-03-28T09:23:30.845Z,99720.59
2023-03-28T09:25:06.986Z,99717.66
2023-03-28T09:26:17.268Z,99722.19
2023-03-28T09:27:37.593Z,99716.28
2023-03-28T09:29:30.104Z,99719.06
2023-03-28T09:30:42.499Z,99722.50
2023-03-28T09:31:51.230Z,99721.13
2023-03-28T09:32:59.502Z,99717.06
2023-03-28T09:34:03.550Z,99715.44
2023-03-28T09:35:17.779Z,99724.63
2023-03-28T09:36:31.528Z,99727.31
2023-03-28T09:37:43.473Z,99717.34
2023-03-28T09:38:56.958Z,99710.91
2023-03-28T09:40:22.661Z,99713.16
2023-03-28T09:42:21.617Z,99716.22
2023-03-28T09:43:59.310Z,99711.84
2023-03-28T09:45:25.648Z,99716.16
2023-03-28T09:46:46.844Z,99709.41
2023-03-28T09:47:48.982Z,99707.41
2023-03-28T09:48:51.318Z,99709.53
2023-03-28T09:50:02.287Z,99704.97
2023-03-28T09:51:19.354Z,99708.28
2023-03-28T09:52:22.597Z,99707.97
2023-03-28T09:53:36.893Z,99709.41
2023-03-28T09:54:42.105Z,99702.91
2023-03-28T09:55:48.999Z,99703.16
2023-03-28T09:57:05.783Z,99710.75
2023-03-28T09:58:12.277Z,99706.69
2023-03-28T09:59:35.468Z,99701.69
2023-03-28T10:00:46.925Z,99705.13
2023-03-28T10:01:53.257Z,99696.50
2023-03-28T10:02:56.049Z,99701.06
2023-03-28T10:03:58.071Z,99699.44
2023-03-28T10:05:00.461Z,99698.38
2023-03-28T10:06:31.019Z,99697.97
2023-03-28T10:07:45.332Z,99703.13
2023-03-28T10:08:47.126Z,99707.06
2023-03-28T10:09:55.825Z,99702.00
2023-03-28T10:11:13.540Z,99708.75
2023-03-28T10:12:24.772Z,99707.66
2023-03-28T10:13:26.699Z,99702.50
2023-03-28T10:14:35.680Z,99694.72
2023-03-28T10:15:49.962Z,99690.22
2023-03-28T10:16:52.074Z,99694.47
2023-03-28T10:17:54.059Z,99699.03
2023-03-28T10:18:56.496Z,99694.47
2023-03-28T10:20:15.327Z,99696.41
2023-03-28T10:21:23.957Z,99684.56
2023-03-28T10:22:33.161Z,99686.19
2023-03-28T10:23:36.778Z,99693.97
2023-03-28T10:24:40.375Z,99687.78
2023-03-28T10:25:45.992Z,99686.44
2023-03-28T10:26:48.610Z,99680.25
2023-03-28T10:27:52.781Z,99684.31
2023-03-28T10:29:04.498Z,99674.34
2023-03-28T10:30:28.447Z,99679.81
2023-03-28T10:31:32.897Z,99678.91
2023-03-28T10:32:34.881Z,99679.97
2023-03-28T10:33:43.231Z,99677.03
2023-03-28T10:35:02.829Z,99678.50
2023-03-28T10:36:05.006Z,99681.34
2023-03-28T10:37:31.889Z,99673.41
2023-03-28T10:38:44.426Z,99667.16
2023-03-28T10:40:17.569Z,99671.22
2023-03-28T10:41:28.586Z,99678.22
2023-03-28T10:42:44.810Z,99674.22
2023-03-28T10:43:46.697Z,99667.38
2023-03-28T10:45:00.886Z,99668.25
2023-03-28T10:46:10.733Z,99670.41
2023-03-28T10:47:18.998Z,99673.66
2023-03-28T10:48:27.934Z,99674.47
2023-03-28T10:49:42.786Z,99672.31
2023-03-28T10:50:55.133Z,99665.88
2023-03-28T10:51:57.585Z,99672.84
2023-03-28T10:53:43.314Z,99669.19
2023-03-28T10:55:11.756Z,99669.16
2023-03-28T10:56:25.868Z,99674.00
2023-03-28T10:57:47.120Z,99670.25
2023-03-28T10:59:01.370Z,99665.66
2023-03-28T11:00:27.203Z,99667.28
2023-03-28T11:01:49.280Z,99667.31
2023-03-28T11:03:07.161Z,99671.09
2023-03-28T11:04:49.848Z,99664.16
2023-03-28T11:06:08.965Z,99669.97
2023-03-28T11:07:50.380Z,99670.06
2023-03-28T11:09:22.317Z,99669.19
2023-03-28T11:10:54.955Z,99659.50
2023-03-28T11:12:07.364Z,99659.81
2023-03-28T11:13:27.364Z,99663.25
2023-03-28T11:14:43.743Z,99659.81
2023-03-28T11:16:31.662Z,99658.78
2023-03-28T11:17:57.567Z,99659.03
2023-03-28T11:19:26.723Z,99655.53
2023-03-28T11:20:57.768Z,99658.41
2023-03-28T11:22:36.072Z,99646.66
2023-03-28T11:23:55.576Z,99651.16
2023-03-28T11:25:18.734Z,99650.38
2023-03-28T11:26:46.344Z,99650.38
2023-03-28T11:28:28.833Z,99651.47
2023-03-28T11:29:57.096Z,99644.47
2023-03-28T11:31:01.562Z,99644.66
2023-03-28T11:32:34.923Z,99635.84
2023-03-28T11:34:13.724Z,99637.97
2023-03-28T11:35:31.690Z,99637.94
2023-03-28T11:37:09.013Z,99634.75
2023-03-28T11:38:22.449Z,99627.16
2023-03-28T11:40:08.437Z,99630.19
2023-03-28T11:41:24.120Z,99622.81
2023-03-28T11:42:50.032Z,99626.88
2023-03-28T11:44:27.885Z,99628.53
2023-03-28T11:45:50.222Z,99617.97
2023-03-28T11:47:10.392Z,99617.69
2023-03-28T11:48:41.148Z,99618.78
2023-03-28T11:49:53.971Z,99615.53
2023-03-28T11:51:10.951Z,99610.41
2023-03-28T11:53:04.271Z,99614.78
2023-03-28T11:54:17.059Z,99607.44
2023-03-28T11:55:20.872Z,99608.44
2023-03-28T11:56:37.551Z,99604.19
2023-03-28T11:58:22.600Z,99611.28
2023-03-28T11:59:59.561Z,99604.00
2023-03-28T12:01:23.201Z,99601.59
2023-03-28T12:02:31.225Z,99601.78
2023-03-28T12:04:07.672Z,99600.19
2023-03-28T12:05:42.147Z,99597.50
2023-03-28T12:07:14.251Z,99600.78
2023-03-28T12:09:00.214Z,99597.31
2023-03-28T12:10:26.152Z,99591.34
2023-03-28T12:11:40.306Z,99589.72
2023-03-28T12:13:06.758Z,99589.75
2023-03-28T12:14:38.589Z,99589.19
2023-03-28T12:15:47.622Z,99583.53
2023-03-28T12:16:53.362Z,99581.88
2023-03-28T12:18:02.344Z,99583.25
2023-03-28T12:19:12.192Z,99574.38
2023-03-28T12:20:28.413Z,99577.59
2023-03-28T12:21:42.688Z,99576.25
2023-03-28T12:22:55.369Z,99567.91
2023-03-28T12:24:29.834Z,99568.78
2023-03-28T12:25:46.886Z,99562.03
2023-03-28T12:27:31.318Z,99558.81
2023-03-28T12:28:51.307Z,99555.56
2023-03-28T12:29:59.297Z,99556.63
2023-03-28T12:31:24.315Z,99555.31
2023-03-28T12:32:46.747Z,99562.06
2023-03-28T12:34:12.273Z,99556.66
2023-03-28T12:35:32.174Z,99550.47
2023-03-28T12:36:59.806Z,99557.19
2023-03-28T12:38:32.551Z,99556.97
2023-03-28T12:39:38.104Z,99558.28
2023-03-28T12:40:52.116Z,99552.06
2023-03-28T12:41:54.642Z,99553.09
2023-03-28T12:42:59.172Z,99550.41
2023-03-28T12:44:12.515Z,99551.25
2023-03-28T12:45:29.952Z,99550.72
2023-03-28T12:46:46.007Z,99555.84
2023-03-28T12:47:55.993Z,99546.41
2023-03-28T12:49:43.940Z,99543.50
2023-03-28T12:51:02.582Z,99535.94
2023-03-28T12:52:07.780Z,99542.94
2023-03-28T12:53:13.358Z,99531.84
2023-03-28T12:54:15.337Z,99537.78
2023-03-28T12:55:26.497Z,99536.16
2023-03-28T12:56:28.628Z,99533.75
2023-03-28T12:57:48.416Z,99532.41
2023-03-28T12:58:53.353Z,99533.47
2023-03-28T13:00:16.468Z,99530.00
2023-03-28T13:01:22.198Z,99532.41
2023-03-28T13:02:53.440Z,99527.88
2023-03-28T13:04:27.459Z,99526.53
2023-03-28T13:06:23.284Z,99526.81
2023-03-28T13:07:57.831Z,99522.53
2023-03-28T13:09:24.236Z,99528.66
2023-03-28T13:10:46.707Z,99523.56
2023-03-28T13:12:00.273Z,99528.66
2023-03-28T13:13:17.086Z,99522.47
2023-03-28T13:14:34.441Z,99521.13
2023-03-28T13:16:12.879Z,99521.44
2023-03-28T13:17:34.197Z,99519.53
2023-03-28T13:18:46.108Z,99511.41
2023-03-28T13:19:54.295Z,99510.06
2023-03-28T13:20:56.721Z,99511.41
2023-03-28T13:22:00.164Z,99511.41
2023-03-28T13:23:08.014Z,99509.00
2023-03-28T13:24:34.402Z,99506.59
2023-03-28T13:25:38.272Z,99505.50
2023-03-28T13:27:03.534Z,99502.31
2023-03-28T13:28:11.383Z,99500.66
2023-03-28T13:29:13.294Z,99504.41
2023-03-28T13:30:21.730Z,99503.59
2023-03-28T13:31:27.148Z,99505.50
2023-03-28T13:32:37.579Z,99503.38
2023-03-28T13:33:52.417Z,99499.59
2023-03-28T13:35:05.430Z,99503.09
2023-03-28T13:36:12.950Z,99496.31
2023-03-28T13:37:46.963Z,99491.81
2023-03-28T13:39:19.924Z,99494.81
2023-03-28T13:40:51.055Z,99495.91
2023-03-28T13:41:57.997Z,99498.50
2023-03-28T13:43:00.153Z,99495.28
2023-03-28T13:44:18.686Z,99493.16